Time;durP1;ratioP1;P1;durP2;ratioP2;P2;SDS_P1;SDS_P2;PMS_P1;PMS_P2;Temp;Humidity;BMP_temperature;BMP_pressure;BME280_temperature;BME280_humidity;BME280_pressure;Samples;Min_cycle;Max_cycle;Signal;HPM_P1;HPM_P2
2022/05/05 00:01:51;;;;;;;1.75;1.65;;;;;;;;;;4204305;34;20121;-61
2022/05/05 00:33:40;;;;;;;4.03;2.50;;;;;;;;;;4281074;28;20191;-58
2022/05/05 00:36:06;;;;;;;6.00;2.55;;;;;;;;;;4197313;34;20513;-59
2022/05/05 00:38:32;;;;;;;7.12;2.78;;;;;;;;;;4199483;34;20101;-60
2022/05/05 00:40:58;;;;;;;5.43;3.00;;;;;;;;;;4190252;34;20134;-60
2022/05/05 00:43:24;;;;;;;6.05;3.10;;;;;;;;;;4185634;34;20110;-61
2022/05/05 00:45:50;;;;;;;4.72;2.40;;;;;;;;;;4203913;34;20102;-61
2022/05/05 00:48:17;;;;;;;2.95;2.30;;;;;;;;;;4204329;34;20212;-61
2022/05/05 00:50:43;;;;;;;3.47;2.40;;;;;;;;;;4202593;34;20101;-61
2022/05/05 00:53:09;;;;;;;2.97;2.40;;;;;;;;;;4190265;34;20118;-63
2022/05/05 00:55:38;;;;;;;2.55;2.20;;;;;;;;;;4191795;34;20117;-63
2022/05/05 00:58:04;;;;;;;3.15;2.00;;;;;;;;;;4192455;34;20118;-62
2022/05/05 01:00:32;;;;;;;3.20;2.35;;;;;;;;;;4191976;34;20165;-63
2022/05/05 01:02:59;;;;;;;3.97;2.60;;;;;;;;;;4192067;34;20594;-63
2022/05/05 01:05:29;;;;;;;2.50;2.25;;;;;;;;;;4179261;34;20097;-63
2022/05/05 01:07:58;;;;;;;3.80;2.17;;;;;;;;;;4193863;34;20443;-63
2022/05/05 01:10:25;;;;;;;3.87;2.10;;;;;;;;;;4193045;34;20133;-63
2022/05/05 01:12:52;;;;;;;2.47;2.00;;;;;;;;;;4192530;34;20088;-63
2022/05/05 01:15:19;;;;;;;4.68;2.22;;;;;;;;;;4205810;34;20114;-63
2022/05/05 01:17:45;;;;;;;3.87;2.10;;;;;;;;;;4192832;34;20121;-63
2022/05/05 01:20:12;;;;;;;3.62;2.50;;;;;;;;;;4205712;34;20118;-63
2022/05/05 01:22:38;;;;;;;3.37;2.12;;;;;;;;;;4206090;34;20113;-63
2022/05/05 01:30:33;;;;;;;4.18;2.00;;;;;;;;;;4205836;34;20090;-61
2022/05/05 01:32:59;;;;;;;2.90;1.87;;;;;;;;;;4192802;34;20117;-61
2022/05/05 01:35:25;;;;;;;2.97;1.67;;;;;;;;;;4205360;34;20154;-61
2022/05/05 01:37:51;;;;;;;3.70;1.87;;;;;;;;;;4205656;34;20455;-64
2022/05/05 01:40:17;;;;;;;2.30;1.90;;;;;;;;;;4205732;34;20101;-63
2022/05/05 01:42:43;;;;;;;3.28;1.87;;;;;;;;;;4205521;34;20469;-62
2022/05/05 01:45:10;;;;;;;2.85;1.92;;;;;;;;;;4205718;34;20090;-62
2022/05/05 01:47:37;;;;;;;2.20;1.90;;;;;;;;;;4205595;34;20106;-62
2022/05/05 01:50:04;;;;;;;4.82;1.98;;;;;;;;;;4205437;34;20315;-61
2022/05/05 01:52:30;;;;;;;2.83;2.00;;;;;;;;;;4205441;34;20120;-62
2022/05/05 01:54:56;;;;;;;1.95;1.65;;;;;;;;;;4205398;34;20485;-61
2022/05/05 01:57:22;;;;;;;3.87;1.90;;;;;;;;;;4205464;34;20118;-61
2022/05/05 01:59:48;;;;;;;2.22;1.70;;;;;;;;;;4205317;34;20518;-62
2022/05/05 02:02:14;;;;;;;3.22;1.77;;;;;;;;;;4205500;34;20129;-61
2022/05/05 02:04:40;;;;;;;3.55;1.83;;;;;;;;;;4205207;34;20648;-61
2022/05/05 02:07:06;;;;;;;2.72;1.73;;;;;;;;;;4205336;34;20110;-62
2022/05/05 02:09:32;;;;;;;1.87;1.70;;;;;;;;;;4205378;34;20107;-61
2022/05/05 02:11:58;;;;;;;1.90;1.80;;;;;;;;;;4205258;34;20098;-61
2022/05/05 02:14:24;;;;;;;2.12;1.77;;;;;;;;;;4205467;34;20085;-61
2022/05/05 02:16:51;;;;;;;1.73;1.50;;;;;;;;;;4205265;34;20110;-61
2022/05/05 02:19:17;;;;;;;2.50;1.83;;;;;;;;;;4205485;34;20120;-61
2022/05/05 02:21:43;;;;;;;3.97;1.90;;;;;;;;;;4205442;34;20133;-61
2022/05/05 02:24:09;;;;;;;4.32;1.80;;;;;;;;;;4192381;34;20098;-61
2022/05/05 02:26:35;;;;;;;3.42;1.85;;;;;;;;;;4205267;34;20082;-61
2022/05/05 02:29:02;;;;;;;2.08;1.77;;;;;;;;;;4205336;34;20116;-61
2022/05/05 02:31:28;;;;;;;2.28;1.70;;;;;;;;;;4205109;34;20110;-61
2022/05/05 02:33:54;;;;;;;2.97;1.90;;;;;;;;;;4205153;34;20520;-61
2022/05/05 02:39:04;;;;;;;3.22;1.77;;;;;;;;;;4205125;34;20105;-62
2022/05/05 02:41:30;;;;;;;3.58;1.87;;;;;;;;;;4204972;34;20125;-62
2022/05/05 02:43:56;;;;;;;1.45;1.35;;;;;;;;;;4205092;34;20831;-61
2022/05/05 02:46:22;;;;;;;1.65;1.50;;;;;;;;;;4204975;34;20117;-61
2022/05/05 02:48:48;;;;;;;2.62;1.60;;;;;;;;;;4205376;34;20485;-61
2022/05/05 02:51:14;;;;;;;2.00;1.90;;;;;;;;;;4205095;34;20222;-60
2022/05/05 02:56:25;;;;;;;1.60;1.50;;;;;;;;;;4194126;34;20769;-61
2022/05/05 02:58:53;;;;;;;2.25;1.50;;;;;;;;;;4205206;34;20196;-60
2022/05/05 03:01:19;;;;;;;2.42;1.83;;;;;;;;;;4205003;34;20113;-60
2022/05/05 03:03:45;;;;;;;1.65;1.42;;;;;;;;;;4204957;34;20478;-60
2022/05/05 03:06:11;;;;;;;2.03;1.55;;;;;;;;;;4204794;34;20113;-61
2022/05/05 03:08:38;;;;;;;2.08;1.67;;;;;;;;;;4205079;34;20210;-61
2022/05/05 03:11:04;;;;;;;1.60;1.45;;;;;;;;;;4204929;34;20118;-61
2022/05/05 03:13:30;;;;;;;2.12;1.70;;;;;;;;;;4204941;34;20132;-61
2022/05/05 03:15:56;;;;;;;1.90;1.80;;;;;;;;;;4204757;34;20213;-61
2022/05/05 03:18:22;;;;;;;3.85;1.95;;;;;;;;;;4204160;34;20110;-62
2022/05/05 03:20:49;;;;;;;1.87;1.62;;;;;;;;;;4204866;34;20110;-61
2022/05/05 03:23:15;;;;;;;1.62;1.50;;;;;;;;;;4204975;34;20114;-61
2022/05/05 03:25:41;;;;;;;1.80;1.70;;;;;;;;;;4204611;34;20194;-61
2022/05/05 03:28:07;;;;;;;2.22;1.80;;;;;;;;;;4204866;34;20189;-61
2022/05/05 03:30:33;;;;;;;2.53;1.73;;;;;;;;;;4204604;34;20102;-61
2022/05/05 03:32:59;;;;;;;3.20;1.80;;;;;;;;;;4204624;34;20118;-62
2022/05/05 03:35:25;;;;;;;1.60;1.50;;;;;;;;;;4191675;34;20110;-61
2022/05/05 03:37:51;;;;;;;5.12;2.30;;;;;;;;;;4204539;34;20619;-62
2022/05/05 03:40:17;;;;;;;2.40;1.87;;;;;;;;;;4204523;34;20176;-61
2022/05/05 03:42:43;;;;;;;3.17;1.67;;;;;;;;;;4204287;34;20193;-61
2022/05/05 03:45:10;;;;;;;1.70;1.60;;;;;;;;;;4191977;34;20287;-61
2022/05/05 03:47:35;;;;;;;1.87;1.67;;;;;;;;;;4204693;34;20102;-60
2022/05/05 03:50:02;;;;;;;2.45;1.80;;;;;;;;;;4204706;34;20185;-61
2022/05/05 03:52:28;;;;;;;2.28;1.70;;;;;;;;;;4204423;34;20172;-62
2022/05/05 03:54:54;;;;;;;2.08;1.80;;;;;;;;;;4204350;34;20118;-61
2022/05/05 03:57:19;;;;;;;2.53;1.90;;;;;;;;;;4204381;34;20192;-60
2022/05/05 03:59:45;;;;;;;2.87;1.92;;;;;;;;;;4191427;34;20629;-61
2022/05/05 04:02:11;;;;;;;2.33;1.70;;;;;;;;;;4204433;34;20136;-60
2022/05/05 04:04:37;;;;;;;2.10;1.90;;;;;;;;;;4204265;34;20589;-60
2022/05/05 04:07:04;;;;;;;2.50;2.05;;;;;;;;;;4179243;34;20117;-60
2022/05/05 04:09:29;;;;;;;4.85;2.15;;;;;;;;;;4164354;34;20130;-60
2022/05/05 04:11:55;;;;;;;2.20;2.00;;;;;;;;;;4176669;34;20608;-61
2022/05/05 04:14:22;;;;;;;4.43;2.20;;;;;;;;;;4176656;34;20467;-60
2022/05/05 04:16:48;;;;;;;2.45;1.90;;;;;;;;;;4176225;34;20165;-60
2022/05/05 04:19:15;;;;;;;3.87;2.30;;;;;;;;;;4176644;34;20594;-60
2022/05/05 04:21:40;;;;;;;2.85;2.20;;;;;;;;;;4176445;34;20118;-59
2022/05/05 04:24:07;;;;;;;4.22;2.00;;;;;;;;;;4163887;34;20214;-60
2022/05/05 04:26:33;;;;;;;3.28;2.40;;;;;;;;;;4176226;34;20094;-59
2022/05/05 04:28:59;;;;;;;4.47;3.05;;;;;;;;;;4176367;34;20141;-60
2022/05/05 04:31:29;;;;;;;3.50;3.20;;;;;;;;;;4163992;34;20190;-61
2022/05/05 04:33:55;;;;;;;2.70;2.40;;;;;;;;;;4163795;34;20094;-61
2022/05/05 04:36:22;;;;;;;3.12;2.42;;;;;;;;;;4145255;34;20109;-62
2022/05/05 04:38:48;;;;;;;2.40;1.92;;;;;;;;;;4204103;34;21095;-61
2022/05/05 04:41:14;;;;;;;2.00;1.80;;;;;;;;;;4203932;34;20181;-61
2022/05/05 04:43:40;;;;;;;2.03;1.90;;;;;;;;;;4191248;34;20190;-61
2022/05/05 04:46:06;;;;;;;2.53;2.10;;;;;;;;;;4190622;34;20101;-61
2022/05/05 04:48:32;;;;;;;2.37;1.90;;;;;;;;;;4204156;34;20087;-61
2022/05/05 04:50:58;;;;;;;2.85;1.80;;;;;;;;;;4203875;34;20183;-61
2022/05/05 04:53:24;;;;;;;2.58;1.87;;;;;;;;;;4204195;34;20114;-61
2022/05/05 04:55:50;;;;;;;2.67;1.90;;;;;;;;;;4203749;34;20101;-60
2022/05/05 04:58:16;;;;;;;5.78;1.90;;;;;;;;;;4203692;34;20118;-61
2022/05/05 05:00:45;;;;;;;2.67;1.87;;;;;;;;;;4190698;34;20191;-61
2022/05/05 05:03:32;;;;;;;3.10;1.90;;;;;;;;;;4203813;34;20522;-60
2022/05/05 05:05:56;;;;;;;;;;;;;;;;;;4204255;34;20133;-61
2022/05/05 05:08:22;;;;;;;2.22;2.00;;;;;;;;;;4190591;34;19977;-60
2022/05/05 05:10:48;;;;;;;3.95;2.00;;;;;;;;;;4203325;34;20114;-60
2022/05/05 05:13:14;;;;;;;5.03;2.22;;;;;;;;;;4203547;34;20218;-61
2022/05/05 05:15:40;;;;;;;2.00;1.80;;;;;;;;;;4203688;34;20116;-61
2022/05/05 05:18:06;;;;;;;4.28;2.45;;;;;;;;;;4203856;34;20123;-61
2022/05/05 05:20:32;;;;;;;3.08;2.20;;;;;;;;;;4203667;34;20094;-61
2022/05/05 05:22:58;;;;;;;2.85;2.25;;;;;;;;;;4203469;34;20101;-61
2022/05/05 05:25:25;;;;;;;2.35;2.15;;;;;;;;;;4203592;34;20181;-61
2022/05/05 05:27:51;;;;;;;4.15;2.20;;;;;;;;;;4203252;34;20204;-61
2022/05/05 05:30:16;;;;;;;3.08;2.00;;;;;;;;;;4203611;34;20115;-60
2022/05/05 05:32:42;;;;;;;2.65;1.83;;;;;;;;;;4203202;34;20106;-60
2022/05/05 05:35:08;;;;;;;3.12;2.22;;;;;;;;;;4203255;34;20128;-61
2022/05/05 05:37:34;;;;;;;3.28;2.08;;;;;;;;;;4203349;34;20109;-60
2022/05/05 05:40:00;;;;;;;3.00;2.12;;;;;;;;;;4203765;34;20117;-60
2022/05/05 05:42:26;;;;;;;2.47;2.28;;;;;;;;;;4205295;34;20201;-60
2022/05/05 05:44:52;;;;;;;2.92;2.10;;;;;;;;;;4205651;34;20098;-61
2022/05/05 05:47:18;;;;;;;5.10;2.50;;;;;;;;;;4205418;34;20213;-62
2022/05/05 05:49:44;;;;;;;3.50;2.25;;;;;;;;;;4205479;34;20121;-61
2022/05/05 05:52:10;;;;;;;2.05;1.90;;;;;;;;;;4192490;34;20100;-61
2022/05/05 05:54:36;;;;;;;2.45;2.25;;;;;;;;;;4205439;34;20197;-62
2022/05/05 05:57:02;;;;;;;2.97;2.20;;;;;;;;;;4205402;34;20514;-61
2022/05/05 05:59:28;;;;;;;3.35;2.12;;;;;;;;;;4205685;34;20125;-61
2022/05/05 06:04:39;;;;;;;2.37;2.15;;;;;;;;;;4205443;34;20542;-61
2022/05/05 06:07:04;;;;;;;2.58;1.90;;;;;;;;;;4192250;34;20596;-61
2022/05/05 06:09:30;;;;;;;2.00;1.80;;;;;;;;;;4205387;34;20197;-61
2022/05/05 06:11:56;;;;;;;4.70;1.50;;;;;;;;;;4192458;34;20518;-62
2022/05/05 06:14:22;;;;;;;2.45;1.55;;;;;;;;;;4205308;34;20143;-61
2022/05/05 06:16:48;;;;;;;1.90;1.70;;;;;;;;;;4205057;34;20294;-61
2022/05/05 06:19:14;;;;;;;1.98;1.77;;;;;;;;;;4205234;34;20131;-61
2022/05/05 06:21:40;;;;;;;1.50;1.40;;;;;;;;;;4205033;34;20219;-61
2022/05/05 06:24:07;;;;;;;1.40;1.30;;;;;;;;;;4205209;34;20118;-61
2022/05/05 06:26:33;;;;;;;1.45;1.35;;;;;;;;;;4205101;34;20101;-61
2022/05/05 06:28:59;;;;;;;1.50;1.40;;;;;;;;;;4205434;34;20110;-61
2022/05/05 06:31:25;;;;;;;1.70;1.50;;;;;;;;;;4192304;34;20082;-60
2022/05/05 06:33:51;;;;;;;1.17;1.17;;;;;;;;;;4205179;34;20129;-60
2022/05/05 06:36:17;;;;;;;1.60;1.50;;;;;;;;;;4204945;34;20113;-61
2022/05/05 06:38:43;;;;;;;1.40;1.30;;;;;;;;;;4205166;34;20520;-60
2022/05/05 06:41:09;;;;;;;1.98;1.20;;;;;;;;;;4205213;34;20277;-59
2022/05/05 06:43:35;;;;;;;1.40;1.30;;;;;;;;;;4192126;34;20130;-61
2022/05/05 06:46:01;;;;;;;1.40;1.30;;;;;;;;;;4205139;34;20101;-61
2022/05/05 06:48:27;;;;;;;1.40;1.30;;;;;;;;;;4204803;34;20494;-59
2022/05/05 06:50:53;;;;;;;1.40;1.30;;;;;;;;;;4204850;34;20529;-61
2022/05/05 06:53:19;;;;;;;1.12;1.12;;;;;;;;;;4204870;34;20217;-59
2022/05/05 06:55:46;;;;;;;1.20;1.20;;;;;;;;;;4204811;34;20098;-61
2022/05/05 06:58:12;;;;;;;1.48;1.23;;;;;;;;;;4204761;34;20454;-61
2022/05/05 07:03:23;;;;;;;1.50;1.40;;;;;;;;;;4204762;34;20121;-61
2022/05/05 07:05:49;;;;;;;1.35;1.20;;;;;;;;;;4205065;34;20526;-61
2022/05/05 07:08:15;;;;;;;3.53;1.62;;;;;;;;;;4205017;34;20117;-61
2022/05/05 07:10:53;;;;;;;1.37;1.27;;;;;;;;;;4204846;34;20216;-60
2022/05/05 07:13:23;;;;;;;1.30;1.30;;;;;;;;;;4204894;34;20545;-61
2022/05/05 07:15:50;;;;;;;1.30;1.20;;;;;;;;;;4204771;34;20124;-59
2022/05/05 07:18:16;;;;;;;1.23;1.12;;;;;;;;;;4204819;34;20090;-59
2022/05/05 07:20:43;;;;;;;1.10;1.10;;;;;;;;;;4204765;34;20098;-60
2022/05/05 07:23:14;;;;;;;1.25;1.25;;;;;;;;;;4205060;34;20539;-60
2022/05/05 07:25:43;;;;;;;3.80;1.20;;;;;;;;;;4204947;34;20113;-59
2022/05/05 07:28:10;;;;;;;1.15;1.10;;;;;;;;;;4191529;34;20286;-61
2022/05/05 07:30:36;;;;;;;1.12;1.12;;;;;;;;;;4204502;34;20090;-61
2022/05/05 07:33:02;;;;;;;1.30;1.20;;;;;;;;;;4191537;34;20675;-61
2022/05/05 07:35:28;;;;;;;1.17;1.17;;;;;;;;;;4204853;34;20113;-62
2022/05/05 07:37:54;;;;;;;1.52;1.42;;;;;;;;;;4204462;34;20120;-61
2022/05/05 07:40:20;;;;;;;1.92;1.58;;;;;;;;;;4204511;34;20209;-60
2022/05/05 07:42:47;;;;;;;2.00;1.75;;;;;;;;;;4180416;34;20148;-61
2022/05/05 07:45:12;;;;;;;2.33;1.50;;;;;;;;;;4204492;34;20522;-62
2022/05/05 07:47:38;;;;;;;1.40;1.30;;;;;;;;;;4204339;34;20144;-62
2022/05/05 07:50:05;;;;;;;1.77;1.60;;;;;;;;;;4204488;34;20197;-61
2022/05/05 07:52:31;;;;;;;1.70;1.40;;;;;;;;;;4191628;34;20578;-60
2022/05/05 07:54:57;;;;;;;1.40;1.40;;;;;;;;;;4204423;34;20109;-59
2022/05/05 07:57:23;;;;;;;1.52;1.42;;;;;;;;;;4204098;34;20605;-60
2022/05/05 07:59:50;;;;;;;1.55;1.40;;;;;;;;;;4204731;34;20549;-62
2022/05/05 08:02:16;;;;;;;2.05;1.70;;;;;;;;;;4204112;34;20136;-60
2022/05/05 08:04:43;;;;;;;1.37;1.30;;;;;;;;;;4204707;34;20118;-61
2022/05/05 08:07:10;;;;;;;1.62;1.52;;;;;;;;;;4204538;34;20144;-61
2022/05/05 08:09:36;;;;;;;1.83;1.40;;;;;;;;;;4204226;34;20117;-60
2022/05/05 08:12:03;;;;;;;1.30;1.30;;;;;;;;;;4201251;34;20117;-61
2022/05/05 08:14:30;;;;;;;2.97;1.45;;;;;;;;;;4201378;34;20213;-62
2022/05/05 08:16:57;;;;;;;1.70;1.60;;;;;;;;;;4201050;34;20106;-61
2022/05/05 08:19:23;;;;;;;1.70;1.60;;;;;;;;;;4201216;34;20128;-62
2022/05/05 08:21:49;;;;;;;1.48;1.37;;;;;;;;;;4187971;34;20137;-61
2022/05/05 08:29:45;;;;;;;1.40;1.30;;;;;;;;;;4204143;34;20108;-61
2022/05/05 08:32:11;;;;;;;1.50;1.40;;;;;;;;;;4191075;34;20094;-60
2022/05/05 08:34:37;;;;;;;1.60;1.50;;;;;;;;;;4203937;34;20446;-60
2022/05/05 08:37:04;;;;;;;1.33;1.23;;;;;;;;;;4203682;34;20606;-61
2022/05/05 08:39:30;;;;;;;3.65;1.87;;;;;;;;;;4203963;34;20224;-61
2022/05/05 08:41:56;;;;;;;4.65;1.45;;;;;;;;;;4203832;34;20106;-60
2022/05/05 08:44:22;;;;;;;2.03;1.48;;;;;;;;;;4204002;34;20141;-61
2022/05/05 08:46:50;;;;;;;1.55;1.45;;;;;;;;;;4198161;34;20421;-61
2022/05/05 08:49:18;;;;;;;1.75;1.33;;;;;;;;;;4163869;34;20117;-60
2022/05/05 08:51:45;;;;;;;2.00;1.62;;;;;;;;;;4167907;34;20137;-61
2022/05/05 08:54:18;;;;;;;1.58;1.48;;;;;;;;;;4197049;34;20126;-62
2022/05/05 08:56:45;;;;;;;1.98;1.50;;;;;;;;;;4203431;34;20106;-63
2022/05/05 08:59:13;;;;;;;1.65;1.55;;;;;;;;;;4203621;34;20131;-62
2022/05/05 09:01:40;;;;;;;2.45;1.60;;;;;;;;;;4203293;34;20125;-61
2022/05/05 09:04:07;;;;;;;1.52;1.40;;;;;;;;;;4190584;34;20117;-59
2022/05/05 09:06:47;;;;;;;1.42;1.33;;;;;;;;;;4203442;34;20090;-60
2022/05/05 09:09:36;;;;;;;1.10;1.10;;;;;;;;;;4203684;34;20101;-60
2022/05/05 09:12:42;;;;;;;2.15;1.37;;;;;;;;;;4163042;34;20234;-60
2022/05/05 09:15:10;;;;;;;1.30;1.30;;;;;;;;;;4190278;34;20140;-60
2022/05/05 09:17:36;;;;;;;1.52;1.42;;;;;;;;;;4203566;34;20113;-61
2022/05/05 09:20:06;;;;;;;1.73;1.62;;;;;;;;;;4205516;34;20132;-59
2022/05/05 09:22:32;;;;;;;2.03;1.20;;;;;;;;;;4205216;34;20136;-59
2022/05/05 09:24:58;;;;;;;1.50;1.40;;;;;;;;;;4205388;34;20121;-60
2022/05/05 09:27:28;;;;;;;2.90;1.23;;;;;;;;;;4205513;34;20118;-61
2022/05/05 09:30:00;;;;;;;1.20;1.20;;;;;;;;;;4205710;34;20537;-61
2022/05/05 09:32:40;;;;;;;1.90;1.30;;;;;;;;;;4205833;34;20212;-61
2022/05/05 09:35:15;;;;;;;1.37;1.27;;;;;;;;;;4178760;34;20098;-60
2022/05/05 09:37:45;;;;;;;1.77;1.52;;;;;;;;;;4200907;34;20091;-58
2022/05/05 09:40:19;;;;;;;1.40;1.30;;;;;;;;;;4205511;34;20121;-59
2022/05/05 09:42:46;;;;;;;1.50;1.40;;;;;;;;;;4192478;34;20109;-60
2022/05/05 09:45:29;;;;;;;1.20;1.20;;;;;;;;;;4205213;34;20095;-60
2022/05/05 09:47:58;;;;;;;1.40;1.30;;;;;;;;;;4192511;34;20113;-60
2022/05/05 09:50:32;;;;;;;1.40;1.30;;;;;;;;;;4204841;34;20098;-59
2022/05/05 09:58:36;;;;;;;2.10;1.10;;;;;;;;;;4205058;34;20109;-59
2022/05/05 10:01:05;;;;;;;1.33;1.25;;;;;;;;;;4181284;34;20426;-60
2022/05/05 10:06:19;;;;;;;1.80;1.30;;;;;;;;;;4205391;34;20563;-60
2022/05/05 10:08:46;;;;;;;1.30;1.20;;;;;;;;;;4204935;34;20098;-60
2022/05/05 10:11:16;;;;;;;1.58;1.23;;;;;;;;;;4205265;34;20102;-60
2022/05/05 10:13:45;;;;;;;1.67;1.58;;;;;;;;;;4205394;34;20204;-60
2022/05/05 10:16:12;;;;;;;1.08;1.02;;;;;;;;;;4205264;34;20106;-60
2022/05/05 10:18:38;;;;;;;1.23;1.23;;;;;;;;;;4204751;34;20121;-60
2022/05/05 10:21:06;;;;;;;2.12;1.40;;;;;;;;;;4205259;34;20193;-60
2022/05/05 10:23:42;;;;;;;1.42;1.33;;;;;;;;;;4205141;34;20140;-60
2022/05/05 10:26:09;;;;;;;2.97;1.40;;;;;;;;;;4205055;34;20122;-63
2022/05/05 10:28:47;;;;;;;2.83;1.70;;;;;;;;;;4192394;34;20105;-60
2022/05/05 10:31:34;;;;;;;1.35;1.25;;;;;;;;;;4205127;34;20142;-60
2022/05/05 10:34:07;;;;;;;2.92;1.30;;;;;;;;;;4183263;34;20617;-61
2022/05/05 10:36:36;;;;;;;1.15;1.15;;;;;;;;;;4204177;34;20109;-62
2022/05/05 10:39:19;;;;;;;1.20;1.20;;;;;;;;;;4205064;34;20117;-61
2022/05/05 10:41:45;;;;;;;1.50;1.40;;;;;;;;;;4205059;34;20129;-60
2022/05/05 10:44:23;;;;;;;1.10;1.10;;;;;;;;;;4192163;34;20175;-60
2022/05/05 10:47:02;;;;;;;1.42;1.33;;;;;;;;;;4204960;34;20116;-60
2022/05/05 10:49:30;;;;;;;1.35;1.30;;;;;;;;;;4205041;34;20131;-62
2022/05/05 10:52:09;;;;;;;6.30;1.27;;;;;;;;;;4204915;34;20137;-62
2022/05/05 10:54:43;;;;;;;2.33;1.42;;;;;;;;;;4180509;34;20112;-60
2022/05/05 10:57:24;;;;;;;1.20;1.20;;;;;;;;;;4204869;34;20117;-61
2022/05/05 11:00:19;;;;;;;3.35;2.40;;;;;;;;;;4205222;34;20117;-62
2022/05/05 11:03:00;;;;;;;3.53;2.17;;;;;;;;;;4204778;34;20427;-62
2022/05/05 11:05:30;;;;;;;1.70;1.30;;;;;;;;;;4204997;34;20109;-62
2022/05/05 11:08:08;;;;;;;1.50;1.40;;;;;;;;;;4204713;34;20197;-62
2022/05/05 11:11:40;;;;;;;1.73;1.37;;;;;;;;;;4204986;34;20604;-66
2022/05/05 11:13:39;;;;;;;1.45;1.35;;;;;;;;;;4182231;34;20105;-67
2022/05/05 11:22:24;;;;;;;1.87;1.60;;;;;;;;;;4193786;34;20474;-62
2022/05/05 11:24:52;;;;;;;1.85;1.40;;;;;;;;;;4204998;34;20114;-62
2022/05/05 11:27:18;;;;;;;1.33;1.23;;;;;;;;;;4204795;34;20114;-63
2022/05/05 11:29:53;;;;;;;3.03;1.60;;;;;;;;;;4204674;34;20090;-62
2022/05/05 11:32:19;;;;;;;1.85;1.12;;;;;;;;;;4204661;34;20098;-63
2022/05/05 11:34:47;;;;;;;1.85;1.42;;;;;;;;;;4204677;34;20157;-63
2022/05/05 11:37:14;;;;;;;2.87;1.58;;;;;;;;;;4203986;34;20097;-64
2022/05/05 11:39:40;;;;;;;2.72;1.62;;;;;;;;;;4191610;34;20322;-62
2022/05/05 11:42:08;;;;;;;2.55;1.60;;;;;;;;;;4204471;34;20548;-60
2022/05/05 11:44:44;;;;;;;2.08;1.80;;;;;;;;;;4204524;34;20583;-62
2022/05/05 11:47:18;;;;;;;4.68;2.60;;;;;;;;;;4191647;34;20086;-61
2022/05/05 11:49:48;;;;;;;4.00;2.30;;;;;;;;;;4204521;34;20117;-59
2022/05/05 11:52:22;;;;;;;9.68;2.20;;;;;;;;;;4204555;34;20122;-62
2022/05/05 11:54:50;;;;;;;1.50;1.40;;;;;;;;;;4204502;34;20218;-65
2022/05/05 11:57:39;;;;;;;3.37;1.65;;;;;;;;;;4191473;34;20156;-62
2022/05/05 12:02:54;;;;;;;1.55;1.45;;;;;;;;;;4204447;34;20110;-61
2022/05/05 12:05:22;;;;;;;1.40;1.30;;;;;;;;;;4191664;34;20132;-61
2022/05/05 12:07:50;;;;;;;2.75;1.30;;;;;;;;;;4191660;34;20109;-61
2022/05/05 12:10:17;;;;;;;1.20;1.20;;;;;;;;;;4204392;34;20100;-61
2022/05/05 12:12:44;;;;;;;1.60;1.50;;;;;;;;;;4204394;34;20108;-63
2022/05/05 12:15:11;;;;;;;1.50;1.40;;;;;;;;;;4191519;34;20539;-63
2022/05/05 12:17:45;;;;;;;1.30;1.20;;;;;;;;;;4191117;34;20121;-61
2022/05/05 12:20:14;;;;;;;2.22;1.30;;;;;;;;;;4204198;34;20109;-62
2022/05/05 12:22:41;;;;;;;2.55;1.87;;;;;;;;;;4204124;34;20120;-62
2022/05/05 12:25:15;;;;;;;3.10;1.33;;;;;;;;;;4204103;34;20136;-61
2022/05/05 12:28:03;;;;;;;3.03;1.55;;;;;;;;;;4191577;34;20482;-61
2022/05/05 12:30:44;;;;;;;1.37;1.27;;;;;;;;;;4204138;34;20098;-62
2022/05/05 12:33:11;;;;;;;1.55;1.40;;;;;;;;;;4179724;34;20097;-60
2022/05/05 12:35:39;;;;;;;1.62;1.40;;;;;;;;;;4191549;34;20592;-65
2022/05/05 12:38:06;;;;;;;2.47;1.50;;;;;;;;;;4203827;34;20443;-64
2022/05/05 12:40:33;;;;;;;5.35;1.55;;;;;;;;;;4203908;34;20548;-65
2022/05/05 12:43:20;;;;;;;2.80;1.48;;;;;;;;;;4191040;34;20110;-62
2022/05/05 12:45:48;;;;;;;2.62;1.40;;;;;;;;;;4191196;34;20106;-63
2022/05/05 12:48:13;;;;;;;1.50;1.40;;;;;;;;;;4204142;34;20094;-60
2022/05/05 12:50:46;;;;;;;5.15;2.00;;;;;;;;;;4205966;34;20133;-63
2022/05/05 13:01:38;;;;;;;1.70;1.60;;;;;;;;;;4206056;34;20225;-61
2022/05/05 13:04:08;;;;;;;1.52;1.40;;;;;;;;;;4205926;34;20109;-64
2022/05/05 13:06:35;;;;;;;1.60;1.50;;;;;;;;;;4205632;34;20114;-67
2022/05/05 13:09:02;;;;;;;4.60;1.42;;;;;;;;;;4192968;34;20198;-65
2022/05/05 13:11:28;;;;;;;1.60;1.50;;;;;;;;;;4192738;34;20114;-61
2022/05/05 13:13:54;;;;;;;1.62;1.50;;;;;;;;;;4205734;34;20201;-63
2022/05/05 13:16:20;;;;;;;1.52;1.42;;;;;;;;;;4181455;34;20098;-66
2022/05/05 13:18:46;;;;;;;1.50;1.40;;;;;;;;;;4205688;34;20102;-61
2022/05/05 13:21:12;;;;;;;1.77;1.40;;;;;;;;;;4192892;34;20202;-60
2022/05/05 13:23:38;;;;;;;1.50;1.40;;;;;;;;;;4192875;34;20208;-63
2022/05/05 13:26:04;;;;;;;1.70;1.58;;;;;;;;;;4192865;34;20101;-63
2022/05/05 13:28:34;;;;;;;2.25;1.70;;;;;;;;;;4205471;34;20438;-65
2022/05/05 13:31:00;;;;;;;4.28;2.60;;;;;;;;;;4193049;34;20181;-64
2022/05/05 13:33:26;;;;;;;1.40;1.30;;;;;;;;;;4206211;34;20179;-66
2022/05/05 13:35:52;;;;;;;1.37;1.27;;;;;;;;;;4193050;34;20118;-64
2022/05/05 13:38:19;;;;;;;1.60;1.50;;;;;;;;;;4182574;34;20105;-62
2022/05/05 13:40:45;;;;;;;1.50;1.40;;;;;;;;;;4206196;34;20098;-61
2022/05/05 13:43:11;;;;;;;2.72;1.60;;;;;;;;;;4205744;34;20082;-62
2022/05/05 13:45:37;;;;;;;2.05;1.52;;;;;;;;;;4205716;34;20126;-63
2022/05/05 13:48:04;;;;;;;2.12;1.67;;;;;;;;;;4205330;34;20114;-61
2022/05/05 13:50:30;;;;;;;2.25;1.55;;;;;;;;;;4205786;34;20117;-63
2022/05/05 13:52:56;;;;;;;1.87;1.55;;;;;;;;;;4193004;34;20116;-63
2022/05/05 13:55:22;;;;;;;1.60;1.40;;;;;;;;;;4181136;34;20110;-62
2022/05/05 13:57:49;;;;;;;1.70;1.60;;;;;;;;;;4192511;34;20141;-62
2022/05/05 14:00:15;;;;;;;3.55;2.37;;;;;;;;;;4205413;34;20225;-62
2022/05/05 14:02:41;;;;;;;1.80;1.70;;;;;;;;;;4205174;34;20135;-62
2022/05/05 14:05:08;;;;;;;1.75;1.65;;;;;;;;;;4205898;34;20217;-62
2022/05/05 14:13:04;;;;;;;3.97;2.70;;;;;;;;;;4192429;34;20497;-63
2022/05/05 14:15:31;;;;;;;3.50;1.60;;;;;;;;;;4206230;34;20118;-63
2022/05/05 14:17:58;;;;;;;2.95;2.15;;;;;;;;;;4192746;34;20129;-63
2022/05/05 14:20:26;;;;;;;4.50;1.80;;;;;;;;;;4205638;34;20090;-62
2022/05/05 14:22:51;;;;;;;1.75;1.65;;;;;;;;;;4205132;34;20110;-63
2022/05/05 14:25:18;;;;;;;1.67;1.58;;;;;;;;;;4192590;34;20106;-63
2022/05/05 14:27:44;;;;;;;2.65;1.87;;;;;;;;;;4205145;34;20522;-61
2022/05/05 14:30:10;;;;;;;1.80;1.70;;;;;;;;;;4192295;34;20105;-62
2022/05/05 14:32:36;;;;;;;3.28;1.67;;;;;;;;;;4205080;34;20102;-60
2022/05/05 14:35:03;;;;;;;2.30;1.77;;;;;;;;;;4204928;34;20199;-61
2022/05/05 14:37:30;;;;;;;1.70;1.60;;;;;;;;;;4203186;34;20836;-61
2022/05/05 14:39:56;;;;;;;4.72;1.65;;;;;;;;;;4154640;34;20105;-61
2022/05/05 14:42:22;;;;;;;1.90;1.70;;;;;;;;;;4190207;34;20209;-60
2022/05/05 14:44:48;;;;;;;1.95;1.50;;;;;;;;;;4190855;34;20113;-63
2022/05/05 14:47:15;;;;;;;1.70;1.60;;;;;;;;;;4190660;34;20129;-63
2022/05/05 14:49:43;;;;;;;3.08;1.77;;;;;;;;;;4191348;34;20515;-63
2022/05/05 14:52:11;;;;;;;2.10;1.75;;;;;;;;;;4178507;34;20213;-66
2022/05/05 14:54:38;;;;;;;1.58;1.48;;;;;;;;;;4190676;34;20466;-64
2022/05/05 14:57:04;;;;;;;1.65;1.50;;;;;;;;;;4189637;34;20128;-62
2022/05/05 14:59:30;;;;;;;1.73;1.58;;;;;;;;;;4177705;34;20095;-61
2022/05/05 15:01:57;;;;;;;1.80;1.70;;;;;;;;;;4190651;34;20268;-63
2022/05/05 15:04:23;;;;;;;1.87;1.70;;;;;;;;;;4190782;34;20098;-61
2022/05/05 15:06:49;;;;;;;2.03;1.70;;;;;;;;;;4203585;34;20129;-63
2022/05/05 15:09:15;;;;;;;2.55;1.80;;;;;;;;;;4204891;34;20205;-61
2022/05/05 15:11:41;;;;;;;1.65;1.50;;;;;;;;;;4191057;34;20193;-60
2022/05/05 15:14:07;;;;;;;1.75;1.62;;;;;;;;;;4203992;34;20109;-63
2022/05/05 15:16:34;;;;;;;1.60;1.50;;;;;;;;;;4204405;34;20124;-61
2022/05/05 15:19:00;;;;;;;2.28;1.80;;;;;;;;;;4191783;34;20132;-63
2022/05/05 15:21:26;;;;;;;2.22;1.62;;;;;;;;;;4204431;34;20343;-63
2022/05/05 15:23:54;;;;;;;2.33;1.70;;;;;;;;;;4191466;34;20114;-62
2022/05/05 15:26:23;;;;;;;1.62;1.52;;;;;;;;;;4182084;34;20127;-62
2022/05/05 15:28:50;;;;;;;2.03;1.50;;;;;;;;;;4177582;34;20116;-62
2022/05/05 15:31:17;;;;;;;7.22;2.10;;;;;;;;;;4187375;34;20434;-64
2022/05/05 15:33:44;;;;;;;3.53;1.87;;;;;;;;;;4204243;34;20121;-61
2022/05/05 15:36:10;;;;;;;1.70;1.60;;;;;;;;;;4203976;34;20113;-64
2022/05/05 15:38:36;;;;;;;1.65;1.52;;;;;;;;;;4204558;34;20110;-62
2022/05/05 15:41:02;;;;;;;1.62;1.52;;;;;;;;;;4204239;34;20241;-61
2022/05/05 15:43:28;;;;;;;2.80;1.50;;;;;;;;;;4204151;34;20121;-64
2022/05/05 15:45:54;;;;;;;3.58;1.70;;;;;;;;;;4204261;34;20132;-66
2022/05/05 15:48:21;;;;;;;2.83;2.25;;;;;;;;;;4190908;34;20098;-59
2022/05/05 15:50:48;;;;;;;4.03;1.85;;;;;;;;;;4204577;34;20486;-65
2022/05/05 15:53:14;;;;;;;2.10;1.85;;;;;;;;;;4191023;34;20117;-62
2022/05/05 15:55:42;;;;;;;2.53;1.75;;;;;;;;;;4204066;34;20118;-60
2022/05/05 15:58:08;;;;;;;3.50;1.75;;;;;;;;;;4204401;34;20116;-63
2022/05/05 16:00:34;;;;;;;1.73;1.62;;;;;;;;;;4204895;34;20122;-70
2022/05/05 16:03:00;;;;;;;3.00;2.12;;;;;;;;;;4204703;34;20118;-61
2022/05/05 16:05:26;;;;;;;4.18;1.80;;;;;;;;;;4204568;34;20125;-71
2022/05/05 16:07:53;;;;;;;2.40;1.70;;;;;;;;;;4204484;34;20112;-60
2022/05/05 16:10:21;;;;;;;2.62;1.80;;;;;;;;;;4204290;34;20109;-63